Rumsey, Canada
Current Conditions -  °F | °C
As of 6:00 AM on Wednesday 26 Nov 2014 (Local Time) from CYQF Reporting Station
Light Snow Light Snow  
Wind Chill: 21°   Ceiling: 6400
Heat Index: 21°   Visibility: 6mi
Dew Point: 19°   Wind: 2mph
Humidity: 93%   Direction: 190°S
Pressure: 30.11"   Gusts: NA
Location:  51.85°N, 112.85°W
Report Text: CYQF 261300Z 19002KT 6SM -SN BKN064 OVC090 M06/M07 A3011 RMK SC6AC2 SLP253
Loading
Personal Weather Stations






























Interactive Weather Map New forecast layout! Learn more

10-Day Weather Forecast

Advertisements
Track Severe Weather on mobile